Dallas, Texas
Traffic Map
Current Weather Conditions
Dallas, Texas
Clear
Clear
88°
Feels Like: 89°
Wind Chill: 88° Ceiling: Unl
Heat Index: 89° Visibility: 10mi
Dew Point: 63° Wind: 13mph
Humidity: 43% Direction: 130° (SE)
Pressure: 29.95in Gusts: 0mph
Raw Report DataKDAL 010153Z 13011KT 10SM CLR 31/17 A2995 RMK AO2 SLP134 T03110172
Traffic Incident Summary
Active as of:
Severity:
Category:
InformationThere was an issue retrieving the traffic information for this location. Please try a different location or try again shortly.
Advertisements
Track Severe Weather on mobile